Bei Facebook empfehlenBei Twitter postenGoogle plusPinterest

Das Wetter im Erzgebirge am 04.11.2015

Wetter und Klima am 04.11.2015 Holzhau im Erzgebirge (630m ü.NN)
Letzte gemessene Temperatur und Uhrzeit der Messung23:59:00 Uhr6.90 °C
Temperatur (Maximum / Höchstwert) und Uhrzeit der Messung11:44:00 Uhr14.40 °C
Temperatur (Minimum / Tiefstwert) und Uhrzeit der Messung07:29:00-0.70 °C
Errechneter Absolutwert der Temperaturschwankungen zwischen Tmin und Tmax des Tages15.10 K
Errechnete Tagesmitteltemperatur6.12188 °C
Gesamt - Niederschlag des Tages (in flüssiger Form)0.00 Liter / m²
Luftdruck (Maximum / Höchstwert) und Zeitpunkt der Messung21:59:00 Uhr1019.00 hPa
Luftdruck (Minimum / Tiefstwert) und Zeitpunkt der Messung07:14:00 Uhr1016.80 hPa
Errechneter Absolutwert der Luftdruckschwankungen des Tages2.20 hPa
Höchste gemessene Windgeschwindigkeit und Uhrzeit der Messung02:59:00 Uhr10.44 km/h
Errechnete Windhäufigkeit in Relation zu den Messwerten des Tages25.00000 %
Niedrigste Windkühle (Windchill) und Zeitpunkt der Messung05:29:00 Uhr-3.60 °C
Taupunkt (Maximum / Höchstwert) und Uhrzeit der Messung10:14:00 Uhr6.80 °C
Taupunkt (Minimum / Tiefstwert) und Uhrzeit der Messung07:29:00-3.30 °C
Anzahl der automatisch eingelesenen Messwerte 96

Detaillierte Wetter- und Klima- Messwerte für den 04.11.2015 in Holzhau im Erzgebirge (630m ü.NN)
ZeitTemperaturLuftdruckRel. LuftfeuchteWindWindrichtungWindchillTaupunktNiederschlag l/m²
23:59:006.90 °C1018.40 hPa89.00 %5.20 °C 
23:44:007.00 °C1018.30 hPa89.00 %5.30 °C 
23:29:006.90 °C1018.40 hPa89.00 %5.20 °C 
23:14:006.80 °C1018.40 hPa89.00 %5.10 °C 
22:59:006.80 °C1018.60 hPa89.00 %5.10 °C 
22:44:006.70 °C1018.70 hPa88.00 %4.90 °C 
22:29:006.60 °C1018.70 hPa88.00 %4.80 °C 
22:14:006.60 °C1018.80 hPa88.00 %4.80 °C 
21:59:006.50 °C1019.00 hPa88.00 %4.70 °C 
21:44:006.40 °C1018.90 hPa87.00 %4.40 °C 
21:29:006.40 °C1018.90 hPa87.00 %4.40 °C 
21:14:006.40 °C1018.70 hPa87.00 %4.40 °C 
20:59:006.40 °C1018.70 hPa87.00 %4.40 °C 
20:44:006.50 °C1018.70 hPa86.00 %4.30 °C 
20:29:006.50 °C1018.50 hPa86.00 %4.30 °C 
20:14:006.60 °C1018.50 hPa85.00 %4.30 °C 
19:59:006.70 °C1018.50 hPa85.00 %4.40 °C 
19:44:006.80 °C1018.40 hPa85.00 %4.50 °C 
19:29:006.90 °C1018.40 hPa84.00 %4.40 °C 
19:14:006.90 °C1018.60 hPa84.00 %4.40 °C 
18:59:007.20 °C1018.50 hPa83.00 %4.50 °C 
18:44:007.30 °C1018.40 hPa82.00 %4.40 °C 
18:29:007.50 °C1018.40 hPa81.00 %4.50 °C 
18:14:007.60 °C1018.30 hPa81.00 %4.60 °C 
17:59:007.90 °C1018.00 hPa80.00 %4.70 °C 
17:44:008.20 °C1017.70 hPa79.00 %4.80 °C 
17:29:008.40 °C1017.70 hPa78.00 %4.80 °C 
17:14:008.70 °C1017.70 hPa77.00 %4.90 °C 
16:59:009.20 °C1017.70 hPa76.00 %5.20 °C 
16:44:009.60 °C1017.60 hPa75.00 %5.40 °C 
16:29:0010.00 °C1017.60 hPa74.00 %5.60 °C 
16:14:0010.60 °C1017.10 hPa72.00 %5.80 °C 
15:59:0011.20 °C1017.70 hPa71.00 %6.10 °C 
15:44:0011.50 °C1017.50 hPa70.00 %6.20 °C 
15:29:0011.90 °C1017.50 hPa68.00 %6.20 °C 
15:14:0012.20 °C1017.80 hPa67.00 %6.30 °C 
14:59:0012.30 °C1017.70 hPa67.00 %6.40 °C 
14:44:0012.50 °C1017.70 hPa66.00 %2.52 km/hWSW12.50 °C6.30 °C 
14:29:0012.60 °C1017.90 hPa66.00 %6.40 °C 
14:14:0012.60 °C1017.70 hPa65.00 %6.20 °C 
13:59:0012.80 °C1018.00 hPa64.00 %6.20 °C 
13:44:0013.10 °C1017.80 hPa62.00 %2.16 km/hWNW13.10 °C6.00 °C 
13:29:0013.30 °C1017.80 hPa61.00 %5.90 °C 
13:14:0013.50 °C1017.90 hPa59.00 %4.32 km/hW13.50 °C5.70 °C 
12:59:0013.60 °C1017.80 hPa58.00 %5.50 °C 
12:44:0013.90 °C1017.90 hPa55.00 %3.24 km/hW13.90 °C5.00 °C 
12:29:0014.10 °C1017.80 hPa53.00 %4.70 °C 
12:14:0014.30 °C1017.80 hPa52.00 %4.60 °C 
11:59:0014.30 °C1017.90 hPa52.00 %4.60 °C 
11:44:0014.40 °C1017.90 hPa54.00 %5.20 °C 
11:29:0014.20 °C1017.90 hPa56.00 %5.60 °C 
11:14:0014.20 °C1018.00 hPa57.00 %2.16 km/hWNW14.20 °C5.80 °C 
10:59:0013.80 °C1018.20 hPa59.00 %5.90 °C 
10:44:0013.20 °C1018.30 hPa61.00 %3.96 km/hW13.20 °C5.90 °C 
10:29:0013.10 °C1017.90 hPa64.00 %2.16 km/hSW13.10 °C6.50 °C 
10:14:0012.10 °C1018.00 hPa70.00 %2.52 km/hW12.10 °C6.80 °C 
09:59:0010.10 °C1018.00 hPa78.00 %6.40 °C 
09:44:007.60 °C1017.90 hPa81.00 %4.60 °C 
09:29:005.80 °C1017.80 hPa83.00 %3.10 °C 
09:14:004.10 °C1017.60 hPa84.00 %1.60 °C 
08:59:002.80 °C1017.60 hPa84.00 %0.40 °C 
08:44:001.60 °C1017.30 hPa85.00 %-0.60 °C 
08:29:000.50 °C1017.20 hPa85.00 %-1.70 °C 
08:14:000.00 °C1017.30 hPa84.00 %-2.70 °C 
07:59:00-0.50 °C1017.10 hPa84.00 %2.52 km/hSO-0.50 °C-3.10 °C 
07:44:00-0.50 °C1017.10 hPa84.00 %2.52 km/hO-0.50 °C-3.10 °C 
07:29:00-0.70 °C1017.10 hPa84.00 %-3.30 °C 
07:14:00-0.40 °C1016.80 hPa84.00 %-3.00 °C 
06:59:00-0.50 °C1016.80 hPa84.00 %3.96 km/hOSO-0.50 °C-3.10 °C 
06:44:00-0.40 °C1017.00 hPa84.00 %2.52 km/hSO-0.40 °C-3.00 °C 
06:29:00-0.60 °C1017.20 hPa84.00 %1.80 km/hOSO-0.60 °C-3.20 °C 
06:14:00-0.70 °C1017.00 hPa84.00 %-3.30 °C 
05:59:00-0.50 °C1017.10 hPa83.00 %-3.30 °C 
05:44:00-0.20 °C1017.10 hPa84.00 %8.28 km/hONO-3.10 °C-2.80 °C 
05:29:00-0.50 °C1017.00 hPa84.00 %9.00 km/hOSO-3.60 °C-3.10 °C 
05:14:00-0.40 °C1017.20 hPa83.00 %2.88 km/hOSO-0.40 °C-3.20 °C 
04:59:00-0.10 °C1017.00 hPa83.00 %-2.90 °C 
04:44:00-0.20 °C1017.00 hPa83.00 %-3.00 °C 
04:29:00-0.10 °C1017.10 hPa83.00 %-2.90 °C 
04:14:00-0.20 °C1016.90 hPa82.00 %2.16 km/hSO-0.20 °C-3.20 °C 
03:59:00-0.10 °C1016.90 hPa81.00 %-3.30 °C 
03:44:000.40 °C1016.90 hPa82.00 %2.88 km/hSSO0.40 °C-2.30 °C 
03:29:000.50 °C1017.00 hPa82.00 %4.32 km/hSO0.50 °C-2.20 °C 
03:14:000.50 °C1017.10 hPa82.00 %5.40 km/hO-1.20 °C-2.20 °C 
02:59:000.30 °C1017.00 hPa81.00 %10.44 km/hO-3.10 °C-2.60 °C 
02:44:000.10 °C1017.00 hPa80.00 %-2.90 °C 
02:29:000.40 °C1017.30 hPa80.00 %-2.60 °C 
02:14:000.50 °C1017.00 hPa79.00 %-2.70 °C 
01:59:000.60 °C1017.10 hPa79.00 %-2.60 °C 
01:44:000.90 °C1017.50 hPa79.00 %-2.30 °C 
01:29:000.90 °C1017.40 hPa78.00 %-2.50 °C 
01:14:000.90 °C1017.10 hPa78.00 %6.84 km/hOSO-1.30 °C-2.50 °C 
00:59:000.90 °C1017.10 hPa78.00 %4.68 km/hO0.90 °C-2.50 °C 
00:44:001.10 °C1017.20 hPa76.00 %-2.60 °C 
00:29:001.80 °C1017.10 hPa77.00 %-1.80 °C 
00:14:001.80 °C1017.20 hPa77.00 %4.68 km/hONO1.80 °C-1.80 °C 

Permanenter Link zu dieser Seite: Wetter im Erzgebirge am 04.11.2015
Performance-Info: Die Erstellung der Seite / Statistik(en) / Tabelle(n) erforderte 5 Datenbankserver-Abfrage(n) und dauerte 102 Millisekunden. (Dieser Messwert ist von der Gesamt-Auslastung des Servers abhängig.)
Erzgebirge - Wetter | Erzgebirge - Wetter (Mobilgeräte) | Komplette Klimadatenbank